Time;durP1;ratioP1;P1;durP2;ratioP2;P2;SDS_P1;SDS_P2;PMS_P1;PMS_P2;Temp;Humidity;BMP_temperature;BMP_pressure;BME280_temperature;BME280_humidity;BME280_pressure;Samples;Min_cycle;Max_cycle;Signal;HPM_P1;HPM_P2
2022/05/01 00:00:12;;;;;;;10.77;5.03;;;16.70;44.80;;;;;;7370305;19;20518;-80
2022/05/01 00:02:47;;;;;;;7.82;5.05;;;16.70;45.10;;;;;;7367922;19;20031;-83
2022/05/01 00:05:15;;;;;;;8.25;5.18;;;16.70;45.20;;;;;;7368345;19;20011;-83
2022/05/01 00:07:44;;;;;;;7.85;4.78;;;16.60;45.20;;;;;;7389272;19;20057;-82
2022/05/01 00:10:13;;;;;;;8.02;4.55;;;16.60;45.20;;;;;;7368365;19;20002;-83
2022/05/01 00:12:42;;;;;;;7.63;4.88;;;16.60;45.20;;;;;;7367833;19;20021;-82
2022/05/01 00:15:11;;;;;;;9.93;5.05;;;16.50;45.40;;;;;;7370660;19;20446;-84
2022/05/01 00:17:43;;;;;;;10.35;5.60;;;16.50;45.50;;;;;;7369259;19;20122;-79
2022/05/01 00:20:14;;;;;;;12.95;7.13;;;16.40;45.60;;;;;;7372625;19;20028;-79
2022/05/01 00:22:43;;;;;;;10.70;5.90;;;16.40;45.80;;;;;;7402765;19;20013;-78
2022/05/01 00:25:13;;;;;;;7.35;5.10;;;16.30;45.80;;;;;;7376193;19;20619;-79
2022/05/01 00:27:42;;;;;;;7.20;5.00;;;16.30;46.20;;;;;;7376930;19;20014;-80
2022/05/01 00:30:11;;;;;;;7.63;4.70;;;16.20;46.10;;;;;;7377652;19;20018;-81
2022/05/01 00:38:05;;;;;;;8.18;4.65;;;16.00;46.90;;;;;;7395124;19;20022;-80
2022/05/01 00:40:33;;;;;;;6.35;4.75;;;16.00;47.00;;;;;;7396595;19;20023;-80
2022/05/01 00:43:06;;;;;;;8.75;4.90;;;16.10;47.00;;;;;;7373841;19;20110;-80
2022/05/01 00:45:35;;;;;;;9.80;5.60;;;16.10;47.00;;;;;;7377258;19;20030;-84
2022/05/01 00:48:07;;;;;;;9.10;5.07;;;16.10;47.00;;;;;;7376176;19;20090;-81
2022/05/01 00:50:36;;;;;;;10.05;5.45;;;16.10;47.10;;;;;;7375867;19;20014;-83
2022/05/01 00:53:08;;;;;;;10.45;4.97;;;16.10;47.00;;;;;;7389569;19;20145;-83
2022/05/01 00:55:38;;;;;;;10.32;5.65;;;16.10;46.90;;;;;;7394676;19;20105;-82
2022/05/01 00:58:13;;;;;;;14.55;5.70;;;16.10;47.00;;;;;;7376677;19;20094;-86
2022/05/01 01:00:43;;;;;;;9.45;5.05;;;16.00;47.00;;;;;;7379067;19;20028;-85
2022/05/01 01:03:14;;;;;;;8.07;4.82;;;16.00;47.30;;;;;;7378620;19;20075;-86
2022/05/01 01:05:44;;;;;;;10.77;5.68;;;15.90;47.40;;;;;;7381805;19;20014;-87
2022/05/01 01:08:13;;;;;;;9.32;5.10;;;15.90;47.40;;;;;;7382499;19;20017;-86
2022/05/01 01:10:45;;;;;;;9.50;5.35;;;15.90;47.50;;;;;;7397036;19;20027;-86
2022/05/01 01:13:14;;;;;;;9.18;5.05;;;15.80;47.50;;;;;;7376590;19;20081;-86
2022/05/01 01:15:43;;;;;;;8.35;5.20;;;15.80;47.70;;;;;;7377686;19;20021;-86
2022/05/01 01:18:15;;;;;;;8.68;5.47;;;15.80;47.70;;;;;;7377057;19;20014;-86
2022/05/01 01:20:46;;;;;;;10.07;5.13;;;15.70;47.70;;;;;;7378305;19;20416;-86
2022/05/01 01:23:16;;;;;;;7.88;5.28;;;15.70;47.80;;;;;;7377013;19;20591;-86
2022/05/01 01:25:44;;;;;;;11.30;5.53;;;15.70;47.90;;;;;;7398534;19;20370;-86
2022/05/01 01:28:14;;;;;;;9.48;6.22;;;15.60;47.90;;;;;;7377516;19;20049;-87
2022/05/01 01:33:28;;;;;;;10.75;5.90;;;15.50;48.10;;;;;;7378666;19;20020;-85
2022/05/01 01:36:03;;;;;;;9.52;5.43;;;15.40;48.20;;;;;;7376313;19;20030;-86
2022/05/01 01:38:32;;;;;;;7.63;5.65;;;15.40;48.40;;;;;;7375348;19;20019;-85
2022/05/01 01:41:07;;;;;;;11.82;5.60;;;15.30;48.50;;;;;;7398500;19;20018;-85
2022/05/01 01:43:37;;;;;;;10.70;5.72;;;15.30;48.40;;;;;;7382021;19;20581;-87
2022/05/01 01:46:06;;;;;;;9.43;5.70;;;15.30;48.50;;;;;;7384858;19;20079;-87
2022/05/01 01:48:35;;;;;;;12.73;5.82;;;15.30;48.40;;;;;;7383732;19;20133;-87
2022/05/01 01:51:08;;;;;;;9.10;5.68;;;15.30;48.40;;;;;;7385728;19;20018;-88
2022/05/01 01:53:38;;;;;;;16.77;5.78;;;15.40;48.40;;;;;;7402756;19;20035;-88
2022/05/01 01:56:08;;;;;;;10.10;6.03;;;15.40;48.40;;;;;;7399304;19;20027;-85
2022/05/01 01:58:38;;;;;;;10.00;5.50;;;15.30;48.40;;;;;;7422386;19;20018;-86
2022/05/01 02:01:09;;;;;;;9.98;6.05;;;15.30;49.30;;;;;;7392378;19;20014;-86
2022/05/01 02:03:38;;;;;;;11.38;6.20;;;15.20;48.70;;;;;;7382824;19;20007;-86
2022/05/01 02:06:09;;;;;;;13.13;6.57;;;15.20;48.70;;;;;;7378263;19;20032;-86
2022/05/01 02:08:40;;;;;;;;;;;15.20;48.70;;;;;;7377908;19;20010;-85
2022/05/01 02:11:10;;;;;;;11.80;5.45;;;15.20;48.80;;;;;;7378211;19;19922;-85
2022/05/01 02:13:39;;;;;;;11.85;5.95;;;15.10;48.80;;;;;;7396816;19;20121;-85
2022/05/01 02:16:08;;;;;;;14.73;5.65;;;15.10;48.90;;;;;;7375213;19;20094;-85
2022/05/01 02:18:37;;;;;;;13.02;6.50;;;15.10;48.90;;;;;;7373728;19;20015;-85
2022/05/01 02:23:49;;;;;;;10.68;6.50;;;15.10;49.00;;;;;;7378465;19;20014;-86
2022/05/01 02:26:18;;;;;;;11.90;6.22;;;15.00;49.00;;;;;;7376944;19;20011;-85
2022/05/01 02:28:47;;;;;;;10.32;6.47;;;14.90;49.20;;;;;;7394174;19;20022;-86
2022/05/01 02:31:16;;;;;;;14.25;6.25;;;14.90;50.00;;;;;;7374724;19;20006;-86
2022/05/01 02:33:45;;;;;;;8.95;5.70;;;14.90;50.10;;;;;;7375827;19;20027;-86
2022/05/01 02:36:17;;;;;;;10.18;6.55;;;14.80;49.50;;;;;;7374908;19;20022;-85
2022/05/01 02:38:47;;;;;;;;;;;14.80;49.60;;;;;;7376123;19;20020;-87
2022/05/01 02:41:16;;;;;;;9.43;6.30;;;14.80;50.20;;;;;;7375237;19;19986;-86
2022/05/01 02:43:45;;;;;;;9.63;6.75;;;14.80;49.60;;;;;;7395972;19;20013;-86
2022/05/01 02:46:13;;;;;;;8.68;6.22;;;14.80;49.60;;;;;;7378602;19;20026;-87
2022/05/01 02:48:43;;;;;;;11.80;6.47;;;14.80;49.70;;;;;;7380800;19;20038;-87
2022/05/01 02:51:12;;;;;;;9.75;6.82;;;14.80;50.00;;;;;;7375205;19;20474;-86
2022/05/01 02:53:44;;;;;;;12.32;6.90;;;14.70;50.30;;;;;;7375034;19;20428;-86
2022/05/01 02:56:13;;;;;;;10.25;7.00;;;14.70;50.50;;;;;;7375038;19;20010;-85
2022/05/01 02:58:41;;;;;;;10.52;6.95;;;14.60;50.60;;;;;;7394274;19;20022;-86
2022/05/01 03:01:13;;;;;;;10.73;7.25;;;14.60;51.00;;;;;;7373383;19;20089;-86
2022/05/01 03:03:42;;;;;;;11.55;7.50;;;14.60;50.40;;;;;;7374450;19;20076;-85
2022/05/01 03:06:11;;;;;;;17.13;7.22;;;14.60;50.50;;;;;;7373749;19;20035;-86
2022/05/01 03:08:42;;;;;;;12.60;7.80;;;14.50;50.50;;;;;;7374252;19;20041;-86
2022/05/01 03:11:11;;;;;;;;;;;14.50;50.50;;;;;;7377145;19;20329;-85
2022/05/01 03:13:40;;;;;;;14.80;7.55;;;14.50;50.40;;;;;;7401070;19;19942;-86
2022/05/01 03:16:08;;;;;;;10.82;7.65;;;14.60;50.50;;;;;;7374145;19;20027;-86
2022/05/01 03:24:02;;;;;;;11.88;7.30;;;14.60;50.60;;;;;;7375527;19;20036;-86
2022/05/01 03:26:31;;;;;;;9.82;7.00;;;14.60;50.50;;;;;;7374081;19;20010;-86
2022/05/01 03:28:59;;;;;;;12.50;7.40;;;14.60;50.60;;;;;;7393941;19;20015;-86
2022/05/01 03:31:29;;;;;;;12.93;8.45;;;14.60;50.60;;;;;;7372638;19;20023;-85
2022/05/01 03:33:59;;;;;;;13.00;8.52;;;14.50;50.60;;;;;;7371578;19;20459;-85
2022/05/01 03:36:27;;;;;;;9.95;7.40;;;14.50;50.60;;;;;;7372515;19;20554;-86
2022/05/01 03:38:56;;;;;;;14.18;8.90;;;14.50;50.70;;;;;;7373565;19;20007;-86
2022/05/01 03:41:29;;;;;;;16.67;9.02;;;14.40;50.80;;;;;;7373703;19;20020;-86
2022/05/01 03:43:57;;;;;;;15.52;9.52;;;14.40;51.00;;;;;;7397287;19;20291;-87
2022/05/01 03:46:26;;;;;;;15.65;9.48;;;14.40;51.40;;;;;;7373709;19;20073;-86
2022/05/01 03:48:55;;;;;;;12.73;9.38;;;14.30;51.20;;;;;;7373481;19;20025;-86
2022/05/01 03:51:24;;;;;;;16.75;9.30;;;14.30;51.30;;;;;;7375186;19;20022;-86
2022/05/01 03:53:52;;;;;;;15.60;9.50;;;14.30;51.50;;;;;;7373647;19;20023;-85
2022/05/01 03:56:21;;;;;;;14.57;9.70;;;14.30;51.50;;;;;;7374523;19;20415;-86
2022/05/01 03:58:52;;;;;;;15.13;9.65;;;14.30;51.40;;;;;;7391545;19;20003;-86
2022/05/01 04:01:21;;;;;;;18.08;9.02;;;14.30;51.40;;;;;;7372000;19;20576;-86
2022/05/01 04:03:50;;;;;;;14.27;9.32;;;14.40;51.30;;;;;;7376370;19;20011;-86
2022/05/01 04:06:19;;;;;;;13.18;9.02;;;14.30;51.30;;;;;;7374297;19;20010;-86
2022/05/01 04:08:48;;;;;;;17.02;9.63;;;14.40;51.20;;;;;;7372330;19;20122;-86
2022/05/01 04:11:18;;;;;;;15.70;8.93;;;14.30;51.10;;;;;;7377322;19;20014;-85
2022/05/01 04:13:48;;;;;;;15.32;8.45;;;14.30;51.30;;;;;;7422636;19;20014;-86
2022/05/01 04:16:20;;;;;;;15.48;9.63;;;14.20;51.30;;;;;;7398962;19;20011;-86
2022/05/01 04:18:48;;;;;;;16.50;9.40;;;14.20;51.30;;;;;;7384872;19;20006;-86
2022/05/01 04:21:19;;;;;;;13.60;9.00;;;14.20;51.40;;;;;;7378546;19;20015;-86
2022/05/01 04:23:48;;;;;;;17.40;9.73;;;14.20;51.30;;;;;;7375570;19;20015;-85
2022/05/01 04:26:16;;;;;;;17.60;9.57;;;14.20;51.30;;;;;;7374250;19;20054;-86
2022/05/01 04:29:36;;;;;;;15.45;9.63;;;14.20;51.40;;;;;;7398341;19;20014;-85
2022/05/01 04:31:37;;;;;;;17.40;9.95;;;14.20;51.40;;;;;;7374149;19;20010;-86
2022/05/01 04:34:05;;;;;;;18.48;9.73;;;14.20;51.50;;;;;;7372472;19;20129;-86
2022/05/01 04:36:34;;;;;;;20.42;10.30;;;14.20;51.50;;;;;;7371889;19;20070;-86
2022/05/01 04:39:04;;;;;;;15.98;9.40;;;14.20;52.10;;;;;;7370181;19;20457;-85
2022/05/01 04:41:32;;;;;;;14.95;9.55;;;14.20;51.50;;;;;;7372274;19;20007;-85
2022/05/01 04:44:01;;;;;;;19.67;9.60;;;14.20;51.60;;;;;;7393804;19;20007;-85
2022/05/01 04:46:30;;;;;;;16.88;10.07;;;14.20;51.70;;;;;;7372864;19;20019;-86
2022/05/01 04:49:01;;;;;;;17.77;11.20;;;14.10;51.70;;;;;;7371963;19;20018;-86
2022/05/01 04:51:30;;;;;;;19.38;10.73;;;14.10;51.80;;;;;;7373924;19;20010;-85
2022/05/01 04:53:59;;;;;;;17.85;10.40;;;14.10;51.90;;;;;;7378132;19;20010;-86
2022/05/01 04:59:18;;;;;;;17.42;10.07;;;14.00;52.10;;;;;;7370297;19;20021;-86
2022/05/01 05:01:47;;;;;;;18.90;10.25;;;14.00;52.20;;;;;;7396234;19;20014;-85
2022/05/01 05:04:18;;;;;;;18.38;9.65;;;14.00;52.40;;;;;;7373299;19;20026;-86
2022/05/01 05:06:48;;;;;;;22.15;10.30;;;14.00;52.60;;;;;;7376745;19;20006;-86
2022/05/01 05:11:58;;;;;;;17.98;10.40;;;14.00;52.50;;;;;;7382498;19;20066;-86
2022/05/01 05:14:26;;;;;;;17.75;9.55;;;14.00;52.60;;;;;;7382546;19;20024;-86
2022/05/01 05:16:55;;;;;;;14.50;9.15;;;14.00;52.90;;;;;;7404305;19;20023;-85
2022/05/01 05:19:27;;;;;;;14.52;9.35;;;14.00;53.00;;;;;;7383729;19;20035;-85
2022/05/01 05:21:55;;;;;;;16.60;10.60;;;14.10;52.80;;;;;;7385065;19;20765;-85
2022/05/01 05:24:24;;;;;;;16.58;10.27;;;14.20;52.50;;;;;;7379487;19;20476;-86
2022/05/01 05:26:53;;;;;;;24.83;11.90;;;14.20;52.50;;;;;;7379378;19;20341;-86
2022/05/01 05:29:23;;;;;;;18.50;10.57;;;14.20;52.30;;;;;;7378519;19;20014;-85
2022/05/01 05:31:51;;;;;;;17.85;11.10;;;14.30;52.30;;;;;;7400078;19;20010;-86
2022/05/01 05:34:20;;;;;;;16.40;10.15;;;14.40;52.10;;;;;;7378675;19;20006;-85
2022/05/01 05:36:53;;;;;;;15.52;9.60;;;14.40;52.10;;;;;;7377838;19;20090;-85
2022/05/01 05:39:22;;;;;;;18.67;10.48;;;14.40;52.10;;;;;;7379367;19;20027;-86
2022/05/01 05:41:51;;;;;;;18.02;10.18;;;14.50;52.50;;;;;;7377382;19;20010;-85
2022/05/01 05:44:20;;;;;;;16.52;10.02;;;14.60;51.80;;;;;;7380419;19;20058;-85
2022/05/01 05:46:48;;;;;;;17.65;10.77;;;14.50;51.50;;;;;;7401998;19;20011;-85
2022/05/01 05:49:17;;;;;;;17.88;10.07;;;14.50;51.50;;;;;;7375132;19;20086;-84
2022/05/01 05:51:46;;;;;;;18.45;11.23;;;14.60;51.50;;;;;;7375865;19;20070;-84
2022/05/01 05:54:17;;;;;;;17.77;10.65;;;14.60;51.50;;;;;;7383399;19;20028;-86
2022/05/01 05:56:46;;;;;;;19.35;10.23;;;14.60;51.50;;;;;;7382309;19;20024;-85
2022/05/01 05:59:15;;;;;;;17.38;10.82;;;14.70;51.60;;;;;;7385204;19;20016;-85
2022/05/01 06:01:44;;;;;;;18.08;10.60;;;14.70;51.30;;;;;;7398461;19;20017;-85
2022/05/01 06:04:13;;;;;;;20.80;10.63;;;14.70;51.30;;;;;;7370178;19;21213;-85
2022/05/01 06:06:41;;;;;;;22.38;11.68;;;14.80;51.30;;;;;;7382571;19;20007;-85
2022/05/01 06:09:10;;;;;;;20.15;12.27;;;14.80;51.10;;;;;;7385431;19;20015;-87
2022/05/01 06:14:13;;;;;;;18.70;12.02;;;14.80;51.20;;;;;;7351491;19;20020;-85
2022/05/01 06:16:42;;;;;;;;;;;14.70;51.10;;;;;;7402101;19;20010;-85
2022/05/01 06:19:11;;;;;;;28.50;12.90;;;14.80;51.30;;;;;;7384141;19;19927;-86
2022/05/01 06:21:39;;;;;;;22.85;12.93;;;14.90;51.30;;;;;;7379778;19;20014;-86
2022/05/01 06:24:09;;;;;;;24.48;12.80;;;15.00;51.80;;;;;;7381842;19;20014;-86
2022/05/01 06:26:37;;;;;;;17.85;11.20;;;15.00;51.10;;;;;;7387834;19;20027;-86
2022/05/01 06:29:07;;;;;;;19.35;12.30;;;15.10;51.00;;;;;;7393321;19;20106;-87
2022/05/01 06:31:41;;;;;;;18.80;11.30;;;15.10;50.80;;;;;;7409227;19;20018;-87
2022/05/01 06:34:13;;;;;;;20.13;10.70;;;15.20;50.90;;;;;;7384178;19;20348;-86
2022/05/01 06:36:42;;;;;;;19.25;10.68;;;15.20;51.00;;;;;;7383536;19;20011;-87
2022/05/01 06:39:11;;;;;;;21.17;11.85;;;15.30;50.90;;;;;;7381378;19;20031;-88
2022/05/01 06:41:40;;;;;;;18.95;12.35;;;15.40;50.90;;;;;;7384188;19;20117;-87
2022/05/01 06:44:09;;;;;;;25.63;12.55;;;15.40;50.60;;;;;;7378914;19;20014;-87
2022/05/01 06:46:40;;;;;;;25.25;12.25;;;15.40;50.40;;;;;;7403150;19;20018;-86
2022/05/01 06:49:09;;;;;;;;;;;15.40;50.70;;;;;;7381977;19;20011;-87
2022/05/01 06:51:37;;;;;;;20.60;11.95;;;15.50;50.80;;;;;;7378593;19;19935;-86
2022/05/01 06:54:08;;;;;;;23.58;13.98;;;15.40;50.40;;;;;;7380436;19;20495;-86
2022/05/01 06:56:37;;;;;;;24.85;14.60;;;15.50;50.60;;;;;;7389466;19;20018;-86
2022/05/01 06:59:06;;;;;;;22.23;12.90;;;15.50;50.60;;;;;;7395373;19;20043;-86
2022/05/01 07:01:35;;;;;;;19.98;12.35;;;15.50;50.80;;;;;;7406577;19;20015;-87
2022/05/01 07:04:07;;;;;;;27.23;14.63;;;15.50;50.90;;;;;;7379425;19;20059;-86
2022/05/01 07:06:36;;;;;;;26.55;13.65;;;15.50;50.30;;;;;;7385464;19;20050;-87
2022/05/01 07:09:05;;;;;;;27.23;14.75;;;15.60;50.30;;;;;;7377638;19;20018;-86
2022/05/01 07:11:33;;;;;;;27.77;13.98;;;15.60;50.10;;;;;;7380827;19;20601;-87
2022/05/01 07:14:02;;;;;;;27.35;14.48;;;15.70;50.50;;;;;;7397196;19;20018;-86
2022/05/01 07:16:31;;;;;;;24.50;14.80;;;15.70;50.10;;;;;;7375690;19;20019;-86
2022/05/01 07:19:00;;;;;;;22.08;15.00;;;15.70;50.70;;;;;;7378751;19;20372;-87
2022/05/01 07:21:33;;;;;;;26.75;14.65;;;15.70;49.90;;;;;;7383656;19;20037;-87
2022/05/01 07:24:02;;;;;;;25.33;15.13;;;15.70;50.70;;;;;;7382962;19;20014;-87
2022/05/01 07:26:33;;;;;;;22.48;15.63;;;15.70;50.20;;;;;;7380557;19;20007;-86
2022/05/01 07:29:02;;;;;;;26.63;15.40;;;15.80;50.00;;;;;;7396391;19;20025;-86
2022/05/01 07:31:31;;;;;;;30.67;15.88;;;15.80;49.40;;;;;;7375168;19;20039;-84
2022/05/01 07:34:00;;;;;;;26.10;14.85;;;15.70;49.10;;;;;;7374385;19;20014;-85
2022/05/01 07:36:32;;;;;;;29.92;16.00;;;15.70;49.30;;;;;;7374674;19;20010;-86
2022/05/01 07:39:01;;;;;;;27.02;13.85;;;15.50;48.80;;;;;;7374923;19;20023;-85
2022/05/01 07:41:30;;;;;;;24.48;15.27;;;15.60;49.10;;;;;;7373613;19;20109;-85
2022/05/01 07:43:59;;;;;;;24.30;15.35;;;15.70;49.70;;;;;;7393782;19;20031;-85
2022/05/01 07:46:28;;;;;;;23.05;14.85;;;15.60;48.80;;;;;;7372437;19;20022;-85
2022/05/01 07:48:56;;;;;;;27.40;15.57;;;15.70;48.80;;;;;;7374652;19;20027;-85
2022/05/01 07:51:25;;;;;;;22.58;13.90;;;15.60;49.30;;;;;;7379402;19;20311;-85
2022/05/01 07:53:58;;;;;;;20.42;12.77;;;15.60;48.60;;;;;;7374845;19;20027;-85
2022/05/01 07:56:27;;;;;;;26.50;14.32;;;15.70;48.30;;;;;;7374844;19;20486;-85
2022/05/01 07:58:56;;;;;;;23.13;13.07;;;15.60;48.10;;;;;;7395637;19;20062;-85
2022/05/01 08:01:25;;;;;;;20.75;13.23;;;15.80;48.40;;;;;;7375289;19;20006;-85
2022/05/01 08:06:36;;;;;;;19.05;12.55;;;15.90;48.20;;;;;;7399455;19;20010;-85
2022/05/01 08:09:08;;;;;;;19.70;12.45;;;15.90;48.10;;;;;;7399318;19;20424;-84
2022/05/01 08:11:36;;;;;;;20.42;12.30;;;15.90;48.20;;;;;;7396065;19;20011;-84
2022/05/01 08:14:05;;;;;;;18.33;11.43;;;15.90;47.80;;;;;;7396145;19;20018;-81
2022/05/01 08:16:34;;;;;;;21.98;13.25;;;16.00;48.10;;;;;;7396008;19;20007;-78
2022/05/01 08:21:44;;;;;;;21.63;12.55;;;16.10;48.10;;;;;;7369210;19;20041;-82
2022/05/01 08:24:15;;;;;;;22.45;11.75;;;16.20;47.60;;;;;;7368169;19;20078;-78
2022/05/01 08:26:47;;;;;;;;;;;16.20;47.10;;;;;;7368671;19;20031;-78
2022/05/01 08:29:16;;;;;;;22.88;12.32;;;16.30;47.00;;;;;;7367752;19;19949;-78
2022/05/01 08:31:46;;;;;;;22.63;12.05;;;16.30;46.50;;;;;;7390356;19;20018;-78
2022/05/01 08:34:16;;;;;;;19.75;11.95;;;16.30;46.90;;;;;;7368102;19;20075;-77
2022/05/01 08:36:45;;;;;;;21.13;11.32;;;16.40;46.80;;;;;;7366896;19;20017;-78
2022/05/01 08:39:16;;;;;;;19.42;11.98;;;16.40;46.50;;;;;;7367584;19;20003;-76
2022/05/01 08:41:45;;;;;;;21.08;12.13;;;16.50;46.70;;;;;;7373351;19;20044;-78
2022/05/01 08:44:16;;;;;;;21.52;12.48;;;16.60;46.60;;;;;;7373843;19;20066;-78
2022/05/01 08:46:58;;;;;;;21.65;11.70;;;16.60;46.40;;;;;;7395827;19;20043;-78
2022/05/01 08:49:29;;;;;;;21.15;12.50;;;16.60;46.70;;;;;;7371556;19;20114;-78
2022/05/01 08:51:58;;;;;;;25.67;12.80;;;16.70;46.10;;;;;;7372972;19;20014;-78
2022/05/01 08:54:34;;;;;;;23.60;12.25;;;16.70;45.80;;;;;;7375064;19;20007;-78
2022/05/01 08:57:03;;;;;;;21.02;12.32;;;16.50;46.20;;;;;;7372950;19;20010;-78
2022/05/01 08:59:33;;;;;;;20.55;12.45;;;16.50;46.30;;;;;;7372739;19;20017;-78
2022/05/01 09:02:02;;;;;;;20.70;12.02;;;16.60;46.20;;;;;;7394758;19;20022;-78
2022/05/01 09:04:31;;;;;;;19.45;11.65;;;16.60;46.30;;;;;;7372548;19;20011;-79
2022/05/01 09:07:00;;;;;;;18.10;10.95;;;16.70;46.60;;;;;;7373291;19;20463;-78
2022/05/01 09:09:31;;;;;;;17.17;11.07;;;16.80;46.20;;;;;;7372589;19;20077;-78
2022/05/01 09:14:43;;;;;;;21.63;10.32;;;17.00;45.00;;;;;;7373322;19;20015;-78
2022/05/01 09:17:17;;;;;;;24.45;11.55;;;17.10;44.90;;;;;;7371754;19;20018;-78
2022/05/01 09:19:47;;;;;;;16.30;11.00;;;17.10;43.20;;;;;;7394231;19;20018;-77
2022/05/01 09:22:16;;;;;;;15.98;11.80;;;17.10;43.70;;;;;;7373363;19;20010;-78
2022/05/01 09:24:52;;;;;;;23.92;13.95;;;17.20;44.20;;;;;;7372950;19;20027;-77
2022/05/01 09:27:32;;;;;;;17.75;12.40;;;16.80;43.70;;;;;;7371663;19;20006;-78
2022/05/01 09:30:11;;;;;;;19.95;11.32;;;16.80;44.50;;;;;;7372385;19;20592;-78
2022/05/01 09:32:41;;;;;;;18.15;11.88;;;16.70;44.50;;;;;;7371393;19;20019;-78
2022/05/01 09:35:15;;;;;;;16.92;11.00;;;16.80;44.50;;;;;;7369990;19;20018;-78
2022/05/01 09:37:44;;;;;;;20.70;12.20;;;16.90;44.90;;;;;;7396073;19;20032;-78
2022/05/01 09:40:30;;;;;;;22.02;11.57;;;17.10;45.10;;;;;;7373734;19;20016;-78
2022/05/01 09:42:59;;;;;;;20.48;11.15;;;17.10;45.00;;;;;;7374289;19;20082;-84
2022/05/01 09:45:33;;;;;;;18.55;10.93;;;17.30;44.80;;;;;;7373506;19;20014;-76
2022/05/01 09:48:02;;;;;;;17.08;10.77;;;17.40;44.30;;;;;;7372664;19;20015;-78
2022/05/01 09:50:43;;;;;;;19.73;10.27;;;17.50;43.90;;;;;;7373470;19;20678;-77
2022/05/01 09:53:13;;;;;;;18.77;11.23;;;17.60;43.60;;;;;;7370851;19;20014;-78
2022/05/01 09:56:02;;;;;;;19.05;10.90;;;17.80;42.90;;;;;;7392429;19;20019;-78
2022/05/01 09:58:38;;;;;;;19.23;10.68;;;17.80;43.00;;;;;;7371681;19;20010;-79
2022/05/01 10:01:12;;;;;;;19.58;11.20;;;18.00;42.60;;;;;;7371860;19;20014;-79
2022/05/01 10:03:46;;;;;;;21.08;11.25;;;18.00;42.30;;;;;;7373337;19;20017;-77
2022/05/01 10:06:16;;;;;;;18.33;10.70;;;18.00;42.10;;;;;;7370593;19;20015;-78
2022/05/01 10:08:47;;;;;;;20.58;10.35;;;18.10;42.30;;;;;;7371906;19;20011;-77
2022/05/01 10:11:19;;;;;;;15.80;10.60;;;18.20;42.00;;;;;;7368022;19;20097;-78
2022/05/01 10:13:48;;;;;;;19.73;9.85;;;18.30;42.10;;;;;;7394352;19;20015;-77
2022/05/01 10:16:18;;;;;;;15.15;9.63;;;18.40;41.80;;;;;;7370251;19;20014;-77
2022/05/01 10:18:48;;;;;;;17.63;11.57;;;18.40;41.00;;;;;;7372225;19;20007;-76
2022/05/01 10:21:17;;;;;;;15.25;10.73;;;18.50;40.60;;;;;;7371363;19;20105;-78
2022/05/01 10:23:45;;;;;;;20.05;11.40;;;18.50;40.90;;;;;;7369694;19;20011;-83
2022/05/01 10:26:20;;;;;;;18.92;11.10;;;18.30;40.30;;;;;;7372728;19;20027;-77
2022/05/01 10:29:05;;;;;;;21.48;14.00;;;18.30;41.30;;;;;;7397122;19;20024;-78
2022/05/01 10:34:52;;;;;;;14.57;9.75;;;18.50;40.90;;;;;;7373896;19;20022;-79
2022/05/01 10:37:44;;;;;;;15.20;10.20;;;18.60;40.90;;;;;;7373948;19;20013;-78
2022/05/01 10:40:13;;;;;;;17.30;11.35;;;18.60;40.80;;;;;;7370584;19;20014;-77
2022/05/01 10:42:49;;;;;;;25.58;11.43;;;18.70;40.90;;;;;;7369650;19;20014;-76
2022/05/01 10:45:45;;;;;;;17.70;12.07;;;18.60;39.90;;;;;;7368322;19;20006;-76
2022/05/01 10:48:17;;;;;;;15.35;10.35;;;18.60;39.50;;;;;;7365578;19;20018;-77
2022/05/01 10:50:46;;;;;;;17.50;10.82;;;18.70;40.00;;;;;;7369309;19;20035;-76
2022/05/01 10:53:16;;;;;;;13.32;8.98;;;18.70;41.10;;;;;;7367773;19;20074;-76
2022/05/01 10:55:46;;;;;;;17.42;10.32;;;18.70;40.40;;;;;;7389896;19;20484;-75
2022/05/01 10:58:27;;;;;;;17.63;9.47;;;18.80;40.80;;;;;;7368744;19;20062;-77
2022/05/01 11:00:58;;;;;;;14.88;8.80;;;18.90;40.70;;;;;;7368569;19;20066;-77
2022/05/01 11:03:28;;;;;;;15.55;9.88;;;19.00;40.60;;;;;;7365701;19;20027;-77
2022/05/01 11:06:14;;;;;;;18.35;9.88;;;19.10;40.70;;;;;;7368791;19;20375;-79
2022/05/01 11:08:43;;;;;;;14.45;9.02;;;19.20;40.00;;;;;;7368159;19;20517;-76
2022/05/01 11:11:12;;;;;;;11.63;7.95;;;19.30;39.70;;;;;;7366113;19;20328;-74
2022/05/01 11:13:45;;;;;;;16.00;9.00;;;19.30;40.20;;;;;;7389338;19;20449;-75
2022/05/01 11:16:13;;;;;;;11.05;8.57;;;19.30;39.00;;;;;;7368118;19;20014;-80
2022/05/01 11:18:56;;;;;;;13.02;8.90;;;19.30;38.60;;;;;;7369174;19;20106;-83
2022/05/01 11:21:37;;;;;;;13.35;8.82;;;19.30;38.70;;;;;;7374543;19;20016;-79
2022/05/01 11:24:08;;;;;;;12.85;9.18;;;19.40;39.20;;;;;;7367932;19;20022;-79
2022/05/01 11:26:36;;;;;;;14.23;9.45;;;19.50;39.10;;;;;;7368145;19;20706;-75
2022/05/01 11:29:14;;;;;;;14.80;9.85;;;19.50;38.90;;;;;;7384981;19;20039;-76
2022/05/01 11:31:47;;;;;;;11.82;7.70;;;19.50;38.70;;;;;;7388756;19;20039;-74
2022/05/01 11:34:46;;;;;;;14.48;7.82;;;19.50;38.00;;;;;;7367685;19;20644;-75
2022/05/01 11:37:14;;;;;;;18.10;8.68;;;19.50;37.70;;;;;;7364938;19;20082;-74
2022/05/01 11:40:22;;;;;;;18.10;11.07;;;19.30;37.40;;;;;;7365658;19;20247;-73
2022/05/01 11:42:52;;;;;;;29.50;17.45;;;19.20;38.60;;;;;;7364389;19;20030;-73
2022/05/01 11:45:23;;;;;;;19.63;10.95;;;19.30;38.60;;;;;;7364248;19;20014;-74
2022/05/01 11:47:53;;;;;;;15.90;10.07;;;19.30;37.60;;;;;;7364159;19;20017;-74
2022/05/01 11:50:28;;;;;;;14.07;9.02;;;19.30;38.10;;;;;;7374569;19;20014;-83
2022/05/01 11:52:58;;;;;;;11.57;8.40;;;19.30;38.00;;;;;;7394737;19;20014;-84
2022/05/01 12:03:33;;;;;;;16.70;10.13;;;19.30;38.50;;;;;;7371804;19;19946;-83
2022/05/01 12:06:01;;;;;;;17.10;11.48;;;19.30;39.00;;;;;;7394523;19;20006;-87
2022/05/01 12:08:30;;;;;;;17.98;9.75;;;19.40;38.80;;;;;;7381067;19;20616;-86
2022/05/01 12:10:59;;;;;;;15.95;9.20;;;19.40;39.00;;;;;;7387095;19;20006;-75
2022/05/01 12:13:32;;;;;;;12.30;7.38;;;19.50;38.10;;;;;;7364663;19;20014;-75
2022/05/01 12:16:03;;;;;;;21.65;10.48;;;19.50;37.90;;;;;;7365511;19;20547;-77
2022/05/01 12:18:32;;;;;;;20.60;11.02;;;19.50;38.50;;;;;;7367989;19;20542;-77
2022/05/01 12:21:00;;;;;;;21.33;12.27;;;19.70;38.60;;;;;;7366876;19;20085;-77
2022/05/01 12:23:29;;;;;;;21.92;12.23;;;19.70;37.70;;;;;;7367150;19;20028;-76
2022/05/01 12:25:59;;;;;;;19.67;11.00;;;19.80;38.10;;;;;;7385951;19;20014;-77
2022/05/01 12:28:28;;;;;;;21.23;11.95;;;19.80;38.10;;;;;;7365752;19;20014;-75
2022/05/01 12:31:08;;;;;;;22.05;12.27;;;19.90;38.20;;;;;;7363444;19;20840;-76
2022/05/01 12:33:37;;;;;;;14.68;8.63;;;20.00;37.60;;;;;;7365710;19;20094;-77
2022/05/01 12:36:06;;;;;;;11.70;8.52;;;20.10;37.60;;;;;;7365627;19;20078;-76
2022/05/01 12:38:35;;;;;;;13.13;8.90;;;20.10;37.10;;;;;;7366114;19;20895;-77
2022/05/01 12:43:55;;;;;;;;;;;20.00;36.70;;;;;;7366976;19;20014;-77
2022/05/01 12:46:29;;;;;;;13.02;8.05;;;20.10;37.10;;;;;;7363959;19;19914;-76
2022/05/01 12:48:59;;;;;;;14.27;8.13;;;20.00;36.80;;;;;;7365770;19;20010;-76
2022/05/01 12:51:41;;;;;;;8.90;6.63;;;20.00;37.30;;;;;;7365075;19;20010;-74
2022/05/01 12:54:16;;;;;;;14.77;7.35;;;20.00;37.60;;;;;;7365961;19;20025;-78
2022/05/01 12:56:45;;;;;;;12.23;7.70;;;20.10;37.50;;;;;;7364409;19;20030;-79
2022/05/01 12:59:28;;;;;;;21.48;7.97;;;20.10;37.40;;;;;;7365332;19;20383;-76
2022/05/01 13:02:01;;;;;;;11.18;7.53;;;19.90;36.40;;;;;;7386883;19;20031;-76
2022/05/01 13:04:31;;;;;;;13.10;6.80;;;20.00;37.20;;;;;;7365466;19;20014;-76
2022/05/01 13:07:01;;;;;;;12.00;7.38;;;20.10;37.30;;;;;;7363280;19;20340;-76
2022/05/01 13:10:13;;;;;;;12.63;7.18;;;20.10;36.60;;;;;;7364460;19;20018;-78
2022/05/01 13:12:42;;;;;;;13.15;7.13;;;20.20;36.20;;;;;;7362182;19;20014;-76
2022/05/01 13:15:11;;;;;;;15.90;8.75;;;20.30;36.70;;;;;;7363949;19;20010;-78
2022/05/01 13:17:43;;;;;;;13.05;7.93;;;20.30;37.20;;;;;;7363941;19;20014;-77
2022/05/01 13:20:12;;;;;;;10.32;7.50;;;20.30;37.20;;;;;;7366017;19;20017;-77
2022/05/01 13:22:40;;;;;;;13.23;7.72;;;20.40;36.70;;;;;;7383698;19;20078;-76
2022/05/01 13:25:13;;;;;;;11.38;6.55;;;20.50;37.00;;;;;;7363680;19;20070;-78
2022/05/01 13:27:41;;;;;;;11.63;7.03;;;20.60;37.30;;;;;;7366494;19;20011;-75
2022/05/01 13:30:12;;;;;;;13.48;7.78;;;20.70;36.10;;;;;;7372903;19;20093;-77
2022/05/01 13:32:43;;;;;;;17.13;8.98;;;20.80;36.30;;;;;;7370234;19;20011;-77
2022/05/01 13:35:12;;;;;;;18.90;11.60;;;20.80;36.90;;;;;;7372833;19;20021;-77
2022/05/01 13:37:40;;;;;;;12.27;7.82;;;20.90;36.50;;;;;;7393058;19;20022;-77
2022/05/01 13:45:33;;;;;;;10.98;6.35;;;21.10;36.20;;;;;;7371622;19;20672;-77